sensor_id;sensor_type;location;lat;lon;timestamp;temperature;humidity
65231;DHT22;51813;40.666;16.602;2023-06-01T00:01:32;21.30;69.60
65231;DHT22;51813;40.666;16.602;2023-06-01T00:03:59;21.20;70.00
65231;DHT22;51813;40.666;16.602;2023-06-01T00:06:25;21.10;70.30
65231;DHT22;51813;40.666;16.602;2023-06-01T00:08:59;21.20;70.00
65231;DHT22;51813;40.666;16.602;2023-06-01T00:11:25;21.20;70.00
65231;DHT22;51813;40.666;16.602;2023-06-01T00:13:52;21.10;70.10
65231;DHT22;51813;40.666;16.602;2023-06-01T00:16:18;21.10;70.10
65231;DHT22;51813;40.666;16.602;2023-06-01T00:18:44;21.20;70.10
65231;DHT22;51813;40.666;16.602;2023-06-01T00:21:10;21.20;69.90
65231;DHT22;51813;40.666;16.602;2023-06-01T00:23:36;21.20;70.00
65231;DHT22;51813;40.666;16.602;2023-06-01T00:26:02;21.20;69.90
65231;DHT22;51813;40.666;16.602;2023-06-01T00:28:28;21.10;69.80
65231;DHT22;51813;40.666;16.602;2023-06-01T00:30:53;21.10;70.00
65231;DHT22;51813;40.666;16.602;2023-06-01T00:33:20;21.10;70.00
65231;DHT22;51813;40.666;16.602;2023-06-01T00:35:46;21.10;70.20
65231;DHT22;51813;40.666;16.602;2023-06-01T00:38:12;21.20;70.00
65231;DHT22;51813;40.666;16.602;2023-06-01T00:40:38;21.10;70.30
65231;DHT22;51813;40.666;16.602;2023-06-01T00:43:03;21.00;70.40
65231;DHT22;51813;40.666;16.602;2023-06-01T00:45:30;21.10;70.30
65231;DHT22;51813;40.666;16.602;2023-06-01T00:47:55;21.10;70.40
65231;DHT22;51813;40.666;16.602;2023-06-01T00:50:21;21.10;70.10
65231;DHT22;51813;40.666;16.602;2023-06-01T00:52:49;21.10;70.00
65231;DHT22;51813;40.666;16.602;2023-06-01T00:55:15;21.10;70.30
65231;DHT22;51813;40.666;16.602;2023-06-01T00:57:44;21.10;70.10
65231;DHT22;51813;40.666;16.602;2023-06-01T01:00:11;21.10;70.00
65231;DHT22;51813;40.666;16.602;2023-06-01T01:02:41;21.20;69.90
65231;DHT22;51813;40.666;16.602;2023-06-01T01:05:11;21.10;70.10
65231;DHT22;51813;40.666;16.602;2023-06-01T01:07:56;21.20;69.90
65231;DHT22;51813;40.666;16.602;2023-06-01T01:13:11;21.10;70.10
65231;DHT22;51813;40.666;16.602;2023-06-01T01:18:39;21.20;70.00
65231;DHT22;51813;40.666;16.602;2023-06-01T01:21:07;21.20;70.00
65231;DHT22;51813;40.666;16.602;2023-06-01T01:29:31;21.20;70.00
65231;DHT22;51813;40.666;16.602;2023-06-01T01:32:00;21.00;70.50
65231;DHT22;51813;40.666;16.602;2023-06-01T01:34:27;21.00;70.60
65231;DHT22;51813;40.666;16.602;2023-06-01T01:36:54;21.00;71.20
65231;DHT22;51813;40.666;16.602;2023-06-01T01:39:20;21.10;70.40
65231;DHT22;51813;40.666;16.602;2023-06-01T01:41:46;21.10;70.60
65231;DHT22;51813;40.666;16.602;2023-06-01T01:44:12;21.10;70.40
65231;DHT22;51813;40.666;16.602;2023-06-01T01:47:19;21.00;70.70
65231;DHT22;51813;40.666;16.602;2023-06-01T01:49:50;21.00;70.70
65231;DHT22;51813;40.666;16.602;2023-06-01T01:52:23;21.00;70.70
65231;DHT22;51813;40.666;16.602;2023-06-01T01:54:51;21.00;70.40
65231;DHT22;51813;40.666;16.602;2023-06-01T01:57:18;21.10;70.40
65231;DHT22;51813;40.666;16.602;2023-06-01T01:59:46;21.10;70.60
65231;DHT22;51813;40.666;16.602;2023-06-01T02:02:12;21.00;70.70
65231;DHT22;51813;40.666;16.602;2023-06-01T02:04:42;21.00;70.40
65231;DHT22;51813;40.666;16.602;2023-06-01T02:07:08;21.00;70.60
65231;DHT22;51813;40.666;16.602;2023-06-01T02:09:34;21.10;70.50
65231;DHT22;51813;40.666;16.602;2023-06-01T02:12:00;21.00;70.40
65231;DHT22;51813;40.666;16.602;2023-06-01T02:14:27;21.00;70.30
65231;DHT22;51813;40.666;16.602;2023-06-01T02:16:53;20.90;70.60
65231;DHT22;51813;40.666;16.602;2023-06-01T02:19:19;20.90;70.80
65231;DHT22;51813;40.666;16.602;2023-06-01T02:21:46;20.90;70.80
65231;DHT22;51813;40.666;16.602;2023-06-01T02:24:12;20.90;70.90
65231;DHT22;51813;40.666;16.602;2023-06-01T02:26:38;20.90;71.10
65231;DHT22;51813;40.666;16.602;2023-06-01T02:29:03;20.80;71.20
65231;DHT22;51813;40.666;16.602;2023-06-01T02:31:31;20.90;70.90
65231;DHT22;51813;40.666;16.602;2023-06-01T02:33:58;20.90;71.40
65231;DHT22;51813;40.666;16.602;2023-06-01T02:36:23;20.90;70.50
65231;DHT22;51813;40.666;16.602;2023-06-01T02:38:50;20.90;70.80
65231;DHT22;51813;40.666;16.602;2023-06-01T02:41:16;20.90;70.60
65231;DHT22;51813;40.666;16.602;2023-06-01T02:43:42;20.90;70.50
65231;DHT22;51813;40.666;16.602;2023-06-01T02:46:07;20.90;70.40
65231;DHT22;51813;40.666;16.602;2023-06-01T02:48:33;20.90;70.40
65231;DHT22;51813;40.666;16.602;2023-06-01T02:50:59;20.80;70.70
65231;DHT22;51813;40.666;16.602;2023-06-01T02:53:25;20.80;71.10
65231;DHT22;51813;40.666;16.602;2023-06-01T02:55:54;20.70;71.30
65231;DHT22;51813;40.666;16.602;2023-06-01T02:58:20;20.70;71.10
65231;DHT22;51813;40.666;16.602;2023-06-01T03:00:46;20.70;71.20
65231;DHT22;51813;40.666;16.602;2023-06-01T03:03:12;20.70;71.20
65231;DHT22;51813;40.666;16.602;2023-06-01T03:05:38;20.70;71.40
65231;DHT22;51813;40.666;16.602;2023-06-01T03:08:04;20.80;71.20
65231;DHT22;51813;40.666;16.602;2023-06-01T03:10:31;20.80;70.80
65231;DHT22;51813;40.666;16.602;2023-06-01T03:12:57;20.80;70.90
65231;DHT22;51813;40.666;16.602;2023-06-01T03:15:23;20.70;71.30
65231;DHT22;51813;40.666;16.602;2023-06-01T03:17:49;20.60;71.60
65231;DHT22;51813;40.666;16.602;2023-06-01T03:20:14;20.50;72.00
65231;DHT22;51813;40.666;16.602;2023-06-01T03:22:44;20.50;72.00
65231;DHT22;51813;40.666;16.602;2023-06-01T03:25:11;20.60;71.50
65231;DHT22;51813;40.666;16.602;2023-06-01T03:27:39;20.70;71.30
65231;DHT22;51813;40.666;16.602;2023-06-01T03:30:05;20.80;70.80
65231;DHT22;51813;40.666;16.602;2023-06-01T03:32:36;20.60;71.40
65231;DHT22;51813;40.666;16.602;2023-06-01T03:35:03;20.70;70.90
65231;DHT22;51813;40.666;16.602;2023-06-01T03:37:29;20.70;71.30
65231;DHT22;51813;40.666;16.602;2023-06-01T03:39:55;20.80;70.80
65231;DHT22;51813;40.666;16.602;2023-06-01T03:42:21;20.90;70.30
65231;DHT22;51813;40.666;16.602;2023-06-01T03:44:46;20.90;70.10
65231;DHT22;51813;40.666;16.602;2023-06-01T03:47:12;20.90;70.10
65231;DHT22;51813;40.666;16.602;2023-06-01T03:49:39;20.90;70.10
65231;DHT22;51813;40.666;16.602;2023-06-01T03:52:05;20.90;69.90
65231;DHT22;51813;40.666;16.602;2023-06-01T03:54:31;20.90;70.10
65231;DHT22;51813;40.666;16.602;2023-06-01T03:56:57;20.90;70.00
65231;DHT22;51813;40.666;16.602;2023-06-01T03:59:23;20.80;70.10
65231;DHT22;51813;40.666;16.602;2023-06-01T04:01:48;20.80;70.00
65231;DHT22;51813;40.666;16.602;2023-06-01T04:04:14;20.80;69.90
65231;DHT22;51813;40.666;16.602;2023-06-01T04:06:42;20.80;70.10
65231;DHT22;51813;40.666;16.602;2023-06-01T04:09:11;20.80;70.20
65231;DHT22;51813;40.666;16.602;2023-06-01T04:11:39;20.80;70.20
65231;DHT22;51813;40.666;16.602;2023-06-01T04:14:05;20.80;70.00
65231;DHT22;51813;40.666;16.602;2023-06-01T04:16:31;20.80;70.00
65231;DHT22;51813;40.666;16.602;2023-06-01T04:18:57;20.80;69.90
65231;DHT22;51813;40.666;16.602;2023-06-01T04:21:23;20.80;70.00
65231;DHT22;51813;40.666;16.602;2023-06-01T04:23:50;20.80;70.20
65231;DHT22;51813;40.666;16.602;2023-06-01T04:26:16;20.80;70.10
65231;DHT22;51813;40.666;16.602;2023-06-01T04:28:43;20.80;70.00
65231;DHT22;51813;40.666;16.602;2023-06-01T04:31:15;20.80;70.00
65231;DHT22;51813;40.666;16.602;2023-06-01T04:33:45;20.80;70.00
65231;DHT22;51813;40.666;16.602;2023-06-01T04:36:14;20.90;70.00
65231;DHT22;51813;40.666;16.602;2023-06-01T04:38:50;20.80;69.90
65231;DHT22;51813;40.666;16.602;2023-06-01T04:41:23;20.80;69.90
65231;DHT22;51813;40.666;16.602;2023-06-01T04:43:49;20.70;70.50
65231;DHT22;51813;40.666;16.602;2023-06-01T04:46:22;20.60;70.60
65231;DHT22;51813;40.666;16.602;2023-06-01T04:48:51;20.60;70.50
65231;DHT22;51813;40.666;16.602;2023-06-01T04:51:17;20.60;70.70
65231;DHT22;51813;40.666;16.602;2023-06-01T04:53:46;20.60;70.70
65231;DHT22;51813;40.666;16.602;2023-06-01T04:56:18;20.60;70.70
65231;DHT22;51813;40.666;16.602;2023-06-01T04:58:46;20.60;70.80
65231;DHT22;51813;40.666;16.602;2023-06-01T05:01:14;20.70;70.50
65231;DHT22;51813;40.666;16.602;2023-06-01T05:03:46;20.70;70.00
65231;DHT22;51813;40.666;16.602;2023-06-01T05:06:13;20.70;70.20
65231;DHT22;51813;40.666;16.602;2023-06-01T05:08:39;20.60;70.20
65231;DHT22;51813;40.666;16.602;2023-06-01T05:11:07;20.60;70.60
65231;DHT22;51813;40.666;16.602;2023-06-01T05:13:37;20.50;70.50
65231;DHT22;51813;40.666;16.602;2023-06-01T05:16:03;20.40;70.80
65231;DHT22;51813;40.666;16.602;2023-06-01T05:18:29;20.50;70.80
65231;DHT22;51813;40.666;16.602;2023-06-01T05:20:55;20.40;70.60
65231;DHT22;51813;40.666;16.602;2023-06-01T05:23:21;20.40;71.10
65231;DHT22;51813;40.666;16.602;2023-06-01T05:25:47;20.40;71.00
65231;DHT22;51813;40.666;16.602;2023-06-01T05:28:13;20.50;70.50
65231;DHT22;51813;40.666;16.602;2023-06-01T05:30:38;20.60;70.50
65231;DHT22;51813;40.666;16.602;2023-06-01T05:33:04;20.70;69.80
65231;DHT22;51813;40.666;16.602;2023-06-01T05:35:30;20.60;70.30
65231;DHT22;51813;40.666;16.602;2023-06-01T05:37:55;20.50;70.70
65231;DHT22;51813;40.666;16.602;2023-06-01T05:40:21;20.60;70.40
65231;DHT22;51813;40.666;16.602;2023-06-01T05:42:47;20.70;70.10
65231;DHT22;51813;40.666;16.602;2023-06-01T05:45:12;20.70;70.10
65231;DHT22;51813;40.666;16.602;2023-06-01T05:47:38;20.70;70.10
65231;DHT22;51813;40.666;16.602;2023-06-01T05:50:04;20.70;70.00
65231;DHT22;51813;40.666;16.602;2023-06-01T05:52:31;20.70;70.10
65231;DHT22;51813;40.666;16.602;2023-06-01T05:54:56;20.60;71.00
65231;DHT22;51813;40.666;16.602;2023-06-01T05:57:23;20.60;70.50
65231;DHT22;51813;40.666;16.602;2023-06-01T05:59:48;20.60;70.10
65231;DHT22;51813;40.666;16.602;2023-06-01T06:02:14;20.70;70.10
65231;DHT22;51813;40.666;16.602;2023-06-01T06:04:40;20.70;70.10
65231;DHT22;51813;40.666;16.602;2023-06-01T06:07:06;20.70;70.10
65231;DHT22;51813;40.666;16.602;2023-06-01T06:09:32;20.70;70.10
65231;DHT22;51813;40.666;16.602;2023-06-01T06:11:58;20.70;70.20
65231;DHT22;51813;40.666;16.602;2023-06-01T06:14:25;20.80;70.00
65231;DHT22;51813;40.666;16.602;2023-06-01T06:16:50;20.80;69.70
65231;DHT22;51813;40.666;16.602;2023-06-01T06:19:16;20.80;69.80
65231;DHT22;51813;40.666;16.602;2023-06-01T06:21:42;20.80;70.10
65231;DHT22;51813;40.666;16.602;2023-06-01T06:24:08;20.70;70.20
65231;DHT22;51813;40.666;16.602;2023-06-01T06:26:34;20.80;70.20
65231;DHT22;51813;40.666;16.602;2023-06-01T06:29:00;20.70;70.20
65231;DHT22;51813;40.666;16.602;2023-06-01T06:31:26;20.70;70.40
65231;DHT22;51813;40.666;16.602;2023-06-01T06:33:52;20.80;69.90
65231;DHT22;51813;40.666;16.602;2023-06-01T06:36:18;20.80;70.00
65231;DHT22;51813;40.666;16.602;2023-06-01T06:38:44;20.70;70.20
65231;DHT22;51813;40.666;16.602;2023-06-01T06:41:10;20.80;70.00
65231;DHT22;51813;40.666;16.602;2023-06-01T06:43:36;20.80;69.90
65231;DHT22;51813;40.666;16.602;2023-06-01T06:46:02;20.80;70.20
65231;DHT22;51813;40.666;16.602;2023-06-01T06:48:28;20.70;70.20
65231;DHT22;51813;40.666;16.602;2023-06-01T06:50:54;20.80;70.00
65231;DHT22;51813;40.666;16.602;2023-06-01T06:53:20;20.80;69.80
65231;DHT22;51813;40.666;16.602;2023-06-01T06:55:46;20.80;69.80
65231;DHT22;51813;40.666;16.602;2023-06-01T06:58:13;20.90;70.40
65231;DHT22;51813;40.666;16.602;2023-06-01T07:00:40;20.90;70.50
65231;DHT22;51813;40.666;16.602;2023-06-01T07:03:07;20.90;70.60
65231;DHT22;51813;40.666;16.602;2023-06-01T07:05:33;20.90;70.60
65231;DHT22;51813;40.666;16.602;2023-06-01T07:07:58;20.90;70.50
65231;DHT22;51813;40.666;16.602;2023-06-01T07:10:24;20.90;70.60
65231;DHT22;51813;40.666;16.602;2023-06-01T07:12:53;20.90;70.60
65231;DHT22;51813;40.666;16.602;2023-06-01T07:15:19;21.00;70.60
65231;DHT22;51813;40.666;16.602;2023-06-01T07:17:45;20.90;70.50
65231;DHT22;51813;40.666;16.602;2023-06-01T07:20:11;21.00;70.50
65231;DHT22;51813;40.666;16.602;2023-06-01T07:22:39;21.00;70.40
65231;DHT22;51813;40.666;16.602;2023-06-01T07:25:06;21.00;70.80
65231;DHT22;51813;40.666;16.602;2023-06-01T07:27:32;21.00;70.50
65231;DHT22;51813;40.666;16.602;2023-06-01T07:30:02;21.00;70.90
65231;DHT22;51813;40.666;16.602;2023-06-01T07:32:28;21.10;71.00
65231;DHT22;51813;40.666;16.602;2023-06-01T07:34:54;21.10;70.60
65231;DHT22;51813;40.666;16.602;2023-06-01T07:37:23;21.10;70.50
65231;DHT22;51813;40.666;16.602;2023-06-01T07:39:51;21.10;70.20
65231;DHT22;51813;40.666;16.602;2023-06-01T07:42:17;21.10;70.60
65231;DHT22;51813;40.666;16.602;2023-06-01T07:44:44;21.10;70.20
65231;DHT22;51813;40.666;16.602;2023-06-01T07:47:10;21.20;70.00
65231;DHT22;51813;40.666;16.602;2023-06-01T07:49:36;21.20;69.80
65231;DHT22;51813;40.666;16.602;2023-06-01T07:52:03;21.20;69.60
65231;DHT22;51813;40.666;16.602;2023-06-01T07:54:30;21.20;69.40
65231;DHT22;51813;40.666;16.602;2023-06-01T07:56:56;21.20;68.90
65231;DHT22;51813;40.666;16.602;2023-06-01T07:59:22;21.20;68.80
65231;DHT22;51813;40.666;16.602;2023-06-01T08:01:52;21.20;68.70
65231;DHT22;51813;40.666;16.602;2023-06-01T08:04:18;21.20;68.70
65231;DHT22;51813;40.666;16.602;2023-06-01T08:06:47;21.20;68.60
65231;DHT22;51813;40.666;16.602;2023-06-01T08:09:13;21.20;68.20
65231;DHT22;51813;40.666;16.602;2023-06-01T08:11:39;21.20;67.70
65231;DHT22;51813;40.666;16.602;2023-06-01T08:14:05;21.20;67.60
65231;DHT22;51813;40.666;16.602;2023-06-01T08:16:33;21.20;67.50
65231;DHT22;51813;40.666;16.602;2023-06-01T08:18:59;21.20;67.40
65231;DHT22;51813;40.666;16.602;2023-06-01T08:21:25;21.20;67.60
65231;DHT22;51813;40.666;16.602;2023-06-01T08:23:52;21.20;67.00
65231;DHT22;51813;40.666;16.602;2023-06-01T08:26:20;21.20;66.80
65231;DHT22;51813;40.666;16.602;2023-06-01T08:28:46;21.20;66.90
65231;DHT22;51813;40.666;16.602;2023-06-01T08:31:21;21.20;66.40
65231;DHT22;51813;40.666;16.602;2023-06-01T08:33:48;21.20;66.40
65231;DHT22;51813;40.666;16.602;2023-06-01T08:36:15;21.30;67.00
65231;DHT22;51813;40.666;16.602;2023-06-01T08:38:41;21.30;66.00
65231;DHT22;51813;40.666;16.602;2023-06-01T08:41:39;21.30;65.90
65231;DHT22;51813;40.666;16.602;2023-06-01T08:44:08;21.30;65.80
65231;DHT22;51813;40.666;16.602;2023-06-01T08:46:35;21.30;65.80
65231;DHT22;51813;40.666;16.602;2023-06-01T08:49:01;21.30;65.80
65231;DHT22;51813;40.666;16.602;2023-06-01T08:51:28;21.30;65.70
65231;DHT22;51813;40.666;16.602;2023-06-01T08:54:00;21.40;65.40
65231;DHT22;51813;40.666;16.602;2023-06-01T08:56:27;21.40;65.20
65231;DHT22;51813;40.666;16.602;2023-06-01T08:58:54;21.40;65.20
65231;DHT22;51813;40.666;16.602;2023-06-01T09:01:20;21.40;65.10
65231;DHT22;51813;40.666;16.602;2023-06-01T09:03:52;21.40;65.30
65231;DHT22;51813;40.666;16.602;2023-06-01T09:06:18;21.40;64.90
65231;DHT22;51813;40.666;16.602;2023-06-01T09:08:47;21.40;64.90
65231;DHT22;51813;40.666;16.602;2023-06-01T09:11:13;21.40;64.80
65231;DHT22;51813;40.666;16.602;2023-06-01T09:13:40;21.50;64.70
65231;DHT22;51813;40.666;16.602;2023-06-01T09:16:07;21.50;65.10
65231;DHT22;51813;40.666;16.602;2023-06-01T09:18:33;21.50;64.80
65231;DHT22;51813;40.666;16.602;2023-06-01T09:21:12;21.50;64.60
65231;DHT22;51813;40.666;16.602;2023-06-01T09:23:38;21.50;64.80
65231;DHT22;51813;40.666;16.602;2023-06-01T09:26:10;21.60;65.10
65231;DHT22;51813;40.666;16.602;2023-06-01T09:29:00;21.60;65.10
65231;DHT22;51813;40.666;16.602;2023-06-01T09:31:43;21.60;65.00
65231;DHT22;51813;40.666;16.602;2023-06-01T09:34:13;21.60;65.00
65231;DHT22;51813;40.666;16.602;2023-06-01T09:36:50;21.60;65.10
65231;DHT22;51813;40.666;16.602;2023-06-01T09:39:20;21.60;65.60
65231;DHT22;51813;40.666;16.602;2023-06-01T09:44:28;21.60;64.80
65231;DHT22;51813;40.666;16.602;2023-06-01T09:47:01;21.60;64.90
65231;DHT22;51813;40.666;16.602;2023-06-01T09:49:28;21.60;65.00
65231;DHT22;51813;40.666;16.602;2023-06-01T09:54:29;21.60;64.60
65231;DHT22;51813;40.666;16.602;2023-06-01T09:56:57;21.60;64.20
65231;DHT22;51813;40.666;16.602;2023-06-01T09:59:24;21.60;64.10
65231;DHT22;51813;40.666;16.602;2023-06-01T10:01:54;21.70;64.00
65231;DHT22;51813;40.666;16.602;2023-06-01T10:04:27;21.70;64.00
65231;DHT22;51813;40.666;16.602;2023-06-01T10:06:55;21.70;64.20
65231;DHT22;51813;40.666;16.602;2023-06-01T10:09:22;21.70;64.20
65231;DHT22;51813;40.666;16.602;2023-06-01T10:11:51;21.70;64.20
65231;DHT22;51813;40.666;16.602;2023-06-01T10:14:22;21.70;64.20
65231;DHT22;51813;40.666;16.602;2023-06-01T10:16:49;21.70;64.20
65231;DHT22;51813;40.666;16.602;2023-06-01T10:19:17;21.70;64.20
65231;DHT22;51813;40.666;16.602;2023-06-01T10:21:43;21.80;64.20
65231;DHT22;51813;40.666;16.602;2023-06-01T10:24:17;21.70;64.00
65231;DHT22;51813;40.666;16.602;2023-06-01T10:29:32;21.80;63.30
65231;DHT22;51813;40.666;16.602;2023-06-01T10:31:58;21.80;63.60
65231;DHT22;51813;40.666;16.602;2023-06-01T10:34:44;21.80;63.50
65231;DHT22;51813;40.666;16.602;2023-06-01T10:37:11;21.80;63.70
65231;DHT22;51813;40.666;16.602;2023-06-01T10:39:37;21.80;62.90
65231;DHT22;51813;40.666;16.602;2023-06-01T10:52:26;21.90;61.80
65231;DHT22;51813;40.666;16.602;2023-06-01T10:54:53;21.90;62.90
65231;DHT22;51813;40.666;16.602;2023-06-01T10:57:22;21.90;63.00
65231;DHT22;51813;40.666;16.602;2023-06-01T11:05:37;21.90;61.30
65231;DHT22;51813;40.666;16.602;2023-06-01T11:08:08;21.90;61.70
65231;DHT22;51813;40.666;16.602;2023-06-01T11:13:19;22.00;62.30
65231;DHT22;51813;40.666;16.602;2023-06-01T11:21:11;22.00;62.20
65231;DHT22;51813;40.666;16.602;2023-06-01T11:23:42;22.00;62.00
65231;DHT22;51813;40.666;16.602;2023-06-01T11:26:07;22.00;61.50
65231;DHT22;51813;40.666;16.602;2023-06-01T11:28:34;22.00;61.20
65231;DHT22;51813;40.666;16.602;2023-06-01T11:31:02;22.00;61.80
65231;DHT22;51813;40.666;16.602;2023-06-01T11:33:29;22.00;62.00
65231;DHT22;51813;40.666;16.602;2023-06-01T11:36:02;22.00;62.00
65231;DHT22;51813;40.666;16.602;2023-06-01T11:38:42;22.00;61.50
65231;DHT22;51813;40.666;16.602;2023-06-01T11:41:09;22.00;61.80
65231;DHT22;51813;40.666;16.602;2023-06-01T11:43:35;22.00;61.30
65231;DHT22;51813;40.666;16.602;2023-06-01T11:46:08;22.10;60.80
65231;DHT22;51813;40.666;16.602;2023-06-01T11:48:35;22.10;61.10
65231;DHT22;51813;40.666;16.602;2023-06-01T11:51:02;22.10;60.90
65231;DHT22;51813;40.666;16.602;2023-06-01T11:53:29;22.20;60.90
65231;DHT22;51813;40.666;16.602;2023-06-01T11:55:57;22.30;61.40
65231;DHT22;51813;40.666;16.602;2023-06-01T11:58:24;22.30;61.40
65231;DHT22;51813;40.666;16.602;2023-06-01T12:00:51;22.30;61.30
65231;DHT22;51813;40.666;16.602;2023-06-01T12:03:17;22.20;61.50
65231;DHT22;51813;40.666;16.602;2023-06-01T12:05:43;22.20;62.10
65231;DHT22;51813;40.666;16.602;2023-06-01T12:10:42;22.10;62.70
65231;DHT22;51813;40.666;16.602;2023-06-01T12:13:09;22.00;63.10
65231;DHT22;51813;40.666;16.602;2023-06-01T12:15:36;21.90;63.40
65231;DHT22;51813;40.666;16.602;2023-06-01T12:18:03;21.90;63.60
65231;DHT22;51813;40.666;16.602;2023-06-01T12:20:49;21.90;63.80
65231;DHT22;51813;40.666;16.602;2023-06-01T12:23:16;21.90;64.00
65231;DHT22;51813;40.666;16.602;2023-06-01T12:25:57;21.80;64.20
65231;DHT22;51813;40.666;16.602;2023-06-01T12:28:25;21.80;64.30
65231;DHT22;51813;40.666;16.602;2023-06-01T12:31:09;21.80;64.40
65231;DHT22;51813;40.666;16.602;2023-06-01T12:33:36;21.80;64.40
65231;DHT22;51813;40.666;16.602;2023-06-01T12:36:03;21.80;64.50
65231;DHT22;51813;40.666;16.602;2023-06-01T12:41:15;21.80;64.60
65231;DHT22;51813;40.666;16.602;2023-06-01T12:43:47;21.80;64.60
65231;DHT22;51813;40.666;16.602;2023-06-01T12:46:19;21.80;64.70
65231;DHT22;51813;40.666;16.602;2023-06-01T12:48:45;21.80;64.70
65231;DHT22;51813;40.666;16.602;2023-06-01T12:51:12;21.80;64.70
65231;DHT22;51813;40.666;16.602;2023-06-01T12:53:39;21.80;64.80
65231;DHT22;51813;40.666;16.602;2023-06-01T12:56:05;21.90;64.80
65231;DHT22;51813;40.666;16.602;2023-06-01T12:58:32;21.90;64.70
65231;DHT22;51813;40.666;16.602;2023-06-01T13:00:57;22.00;64.50
65231;DHT22;51813;40.666;16.602;2023-06-01T13:03:23;22.20;64.20
65231;DHT22;51813;40.666;16.602;2023-06-01T13:05:49;22.30;63.90
65231;DHT22;51813;40.666;16.602;2023-06-01T13:08:16;22.50;63.60
65231;DHT22;51813;40.666;16.602;2023-06-01T13:10:43;22.60;63.10
65231;DHT22;51813;40.666;16.602;2023-06-01T13:13:09;22.80;62.60
65231;DHT22;51813;40.666;16.602;2023-06-01T13:15:42;22.90;63.00
65231;DHT22;51813;40.666;16.602;2023-06-01T13:18:08;23.00;62.00
65231;DHT22;51813;40.666;16.602;2023-06-01T13:20:35;23.10;61.90
65231;DHT22;51813;40.666;16.602;2023-06-01T13:23:01;23.20;61.50
65231;DHT22;51813;40.666;16.602;2023-06-01T13:25:28;23.20;61.40
65231;DHT22;51813;40.666;16.602;2023-06-01T13:27:54;23.30;61.00
65231;DHT22;51813;40.666;16.602;2023-06-01T13:30:22;23.40;60.80
65231;DHT22;51813;40.666;16.602;2023-06-01T13:32:48;23.40;60.80
65231;DHT22;51813;40.666;16.602;2023-06-01T13:35:13;23.50;61.10
65231;DHT22;51813;40.666;16.602;2023-06-01T13:37:39;23.50;60.80
65231;DHT22;51813;40.666;16.602;2023-06-01T13:40:05;23.50;60.70
65231;DHT22;51813;40.666;16.602;2023-06-01T13:42:32;23.60;60.70
65231;DHT22;51813;40.666;16.602;2023-06-01T13:44:58;23.60;60.60
65231;DHT22;51813;40.666;16.602;2023-06-01T13:47:24;23.60;60.50
65231;DHT22;51813;40.666;16.602;2023-06-01T13:49:50;23.70;60.50
65231;DHT22;51813;40.666;16.602;2023-06-01T13:52:16;23.70;60.40
65231;DHT22;51813;40.666;16.602;2023-06-01T13:54:42;23.70;60.40
65231;DHT22;51813;40.666;16.602;2023-06-01T13:57:09;23.80;60.10
65231;DHT22;51813;40.666;16.602;2023-06-01T13:59:35;23.90;60.00
65231;DHT22;51813;40.666;16.602;2023-06-01T14:02:02;24.10;59.70
65231;DHT22;51813;40.666;16.602;2023-06-01T14:04:29;24.10;59.20
65231;DHT22;51813;40.666;16.602;2023-06-01T14:06:55;24.10;59.30
65231;DHT22;51813;40.666;16.602;2023-06-01T14:09:21;24.00;59.70
65231;DHT22;51813;40.666;16.602;2023-06-01T14:11:48;24.00;59.70
65231;DHT22;51813;40.666;16.602;2023-06-01T14:14:14;24.00;59.70
65231;DHT22;51813;40.666;16.602;2023-06-01T14:16:39;24.10;59.50
65231;DHT22;51813;40.666;16.602;2023-06-01T14:19:05;24.10;59.20
65231;DHT22;51813;40.666;16.602;2023-06-01T14:21:31;24.20;59.20
65231;DHT22;51813;40.666;16.602;2023-06-01T14:23:58;24.20;59.20
65231;DHT22;51813;40.666;16.602;2023-06-01T14:26:24;24.10;59.50
65231;DHT22;51813;40.666;16.602;2023-06-01T14:28:50;24.10;59.80
65231;DHT22;51813;40.666;16.602;2023-06-01T14:31:15;24.00;59.90
65231;DHT22;51813;40.666;16.602;2023-06-01T14:33:41;23.90;60.20
65231;DHT22;51813;40.666;16.602;2023-06-01T14:36:08;23.80;60.60
65231;DHT22;51813;40.666;16.602;2023-06-01T14:38:33;23.70;60.90
65231;DHT22;51813;40.666;16.602;2023-06-01T14:40:59;23.60;61.30
65231;DHT22;51813;40.666;16.602;2023-06-01T14:43:25;23.50;61.60
65231;DHT22;51813;40.666;16.602;2023-06-01T14:45:51;23.40;62.00
65231;DHT22;51813;40.666;16.602;2023-06-01T14:48:16;23.30;62.10
65231;DHT22;51813;40.666;16.602;2023-06-01T14:50:42;23.20;62.30
65231;DHT22;51813;40.666;16.602;2023-06-01T14:53:08;23.10;62.60
65231;DHT22;51813;40.666;16.602;2023-06-01T14:55:34;23.10;62.80
65231;DHT22;51813;40.666;16.602;2023-06-01T14:58:00;23.00;63.00
65231;DHT22;51813;40.666;16.602;2023-06-01T15:00:26;22.90;63.20
65231;DHT22;51813;40.666;16.602;2023-06-01T15:02:53;22.80;63.30
65231;DHT22;51813;40.666;16.602;2023-06-01T15:05:19;22.80;63.50
65231;DHT22;51813;40.666;16.602;2023-06-01T15:07:44;22.80;63.70
65231;DHT22;51813;40.666;16.602;2023-06-01T15:10:10;22.70;63.80
65231;DHT22;51813;40.666;16.602;2023-06-01T15:12:36;22.60;63.90
65231;DHT22;51813;40.666;16.602;2023-06-01T15:15:02;22.60;64.40
65231;DHT22;51813;40.666;16.602;2023-06-01T15:17:28;22.50;64.60
65231;DHT22;51813;40.666;16.602;2023-06-01T15:19:53;22.40;64.40
65231;DHT22;51813;40.666;16.602;2023-06-01T15:22:19;22.50;64.40
65231;DHT22;51813;40.666;16.602;2023-06-01T15:24:45;22.40;64.30
65231;DHT22;51813;40.666;16.602;2023-06-01T15:27:10;22.40;64.20
65231;DHT22;51813;40.666;16.602;2023-06-01T15:29:36;22.30;64.10
65231;DHT22;51813;40.666;16.602;2023-06-01T15:32:02;22.30;63.90
65231;DHT22;51813;40.666;16.602;2023-06-01T15:34:28;22.30;63.80
65231;DHT22;51813;40.666;16.602;2023-06-01T15:36:53;22.30;64.10
65231;DHT22;51813;40.666;16.602;2023-06-01T15:39:21;22.20;64.10
65231;DHT22;51813;40.666;16.602;2023-06-01T15:41:46;22.20;63.90
65231;DHT22;51813;40.666;16.602;2023-06-01T15:44:12;22.20;64.00
65231;DHT22;51813;40.666;16.602;2023-06-01T15:46:38;22.20;64.20
65231;DHT22;51813;40.666;16.602;2023-06-01T15:49:03;22.10;64.20
65231;DHT22;51813;40.666;16.602;2023-06-01T15:51:29;22.00;64.10
65231;DHT22;51813;40.666;16.602;2023-06-01T15:53:56;22.00;64.30
65231;DHT22;51813;40.666;16.602;2023-06-01T15:56:22;22.00;64.50
65231;DHT22;51813;40.666;16.602;2023-06-01T15:58:47;22.00;64.40
65231;DHT22;51813;40.666;16.602;2023-06-01T16:01:16;21.90;64.20
65231;DHT22;51813;40.666;16.602;2023-06-01T16:03:42;21.90;64.30
65231;DHT22;51813;40.666;16.602;2023-06-01T16:06:08;21.90;64.50